Cape Tainaro — 9HA4463 — position and weather

sailwx.info

Track history (hours):
 
Tides and Currents Weather Stations Pressure Air Temp Water Temp Dewpoint Dewpoint Depression Visibility Wind Speed Wind Dir Waves Ship Positions

Cape Tainaro

Last reported at 2017-Nov-08 02:00 UTC. Time now 2017-Nov-24 18:43 UTC.
Position N 36°25' E 014°44'.
Warning: this ship's position is 16 days out of date.

Length 330 m; draft 10.2 m.

Type: Cargo ship. MMSI: 249982000.

Date/timePositionNaut miles runAvg speedWind from/ knotsBaromVisibWave heightAir tempDewpointWater temp
2017-Nov-08 02:00N 36°25' E 014°44'714.3
2017-Nov-08 01:30N 36°27' E 014°35'714.6
2017-Nov-08 01:00N 36°29' E 014°27'714.6
2017-Nov-08 00:30N 36°31' E 014°18'714.4
2017-Nov-08 00:00N 36°33' E 014°09'714.3
2017-Nov-07 23:30N 36°35' E 014°01'714.4
2017-Nov-07 23:00N 36°37' E 013°52'714.3
2017-Nov-07 22:30N 36°39' E 013°44'714.5
2017-Nov-07 22:00N 36°42' E 013°35'714.5
2017-Nov-07 21:30N 36°44' E 013°26'  
2017-Nov-05 07:04N 35°59' W 005°15'116.8
2017-Nov-05 07:01N 35°59' W 005°17'918.2
2017-Nov-05 06:31N 35°58' W 005°28'24213.3
2017-Nov-04 12:21N 37°56' W 009°52'515.2
2017-Nov-04 12:00N 38°01' W 009°54'815.2
2017-Nov-04 11:30N 38°09' W 009°57'815.0
2017-Nov-04 11:00N 38°16' W 009°59'715.2
2017-Nov-04 10:30N 38°23' W 010°01'815.6
2017-Nov-04 10:00N 38°31' W 010°03'815.3
2017-Nov-04 09:30N 38°38' W 010°05'714.9
2017-Nov-04 09:00N 38°46' W 010°06'815.1
2017-Nov-04 08:31N 38°53' W 010°06'815.2
2017-Nov-04 08:00N 39°01' W 010°06'815.6
2017-Nov-04 07:30N 39°09' W 010°07'815.6
2017-Nov-04 07:00N 39°16' W 010°07'815.4
2017-Nov-04 06:30N 39°24' W 010°06'815.4
2017-Nov-04 06:00N 39°32' W 010°06'44014.5
2017-Nov-02 23:44N 46°38' W 007°38'3415.1
2017-Nov-02 21:30N 47°08' W 007°16'815.2
2017-Nov-02 20:58N 47°15' W 007°10'714.7
2017-Nov-02 20:30N 47°21' W 007°05'715.0
2017-Nov-02 20:00N 47°28' W 006°59'1015.5
2017-Nov-02 19:21N 47°36' W 006°52'616.3
2017-Nov-02 18:58N 47°42' W 006°47'716.2
2017-Nov-02 18:30N 47°48' W 006°41'816.2
2017-Nov-02 17:59N 47°55' W 006°35'815.8
2017-Nov-02 17:30N 48°02' W 006°30'816.2
2017-Nov-02 17:01N 48°09' W 006°24'714.8
2017-Nov-02 16:30N 48°16' W 006°19'714.9
2017-Nov-02 16:01N 48°22' W 006°13'714.5
2017-Nov-02 15:30N 48°29' W 006°08'714.0
2017-Nov-02 14:59N 48°35' W 006°03'613.7
2017-Nov-02 14:30N 48°41' W 005°58'713.6
2017-Nov-02 13:57N 48°47' W 005°53'713.5
2017-Nov-02 13:28N 48°53' W 005°46'613.9
2017-Nov-02 13:00N 48°56' W 005°38'1014.0
2017-Nov-02 12:16N 49°02' W 005°25'814.5
2017-Nov-02 11:42N 49°06' W 005°14'314.8
2017-Nov-02 11:30N 49°07' W 005°10'815.3
2017-Nov-02 10:57N 49°12' W 004°60'5116.3
2017-Nov-02 07:48N 49°38' W 003°52'515.6
2017-Nov-02 07:28N 49°41' W 003°45'715.2
2017-Nov-02 07:00N 49°44' W 003°36'714.6
2017-Nov-02 06:31N 49°48' W 003°26'714.1
2017-Nov-02 06:00N 49°52' W 003°16'713.7
2017-Nov-02 05:30N 49°55' W 003°07'713.3
2017-Nov-02 05:00N 49°59' W 002°59'713.1
2017-Nov-02 04:30N 50°00' W 002°49'713.3
2017-Nov-02 04:01N 50°02' W 002°39'713.6
2017-Nov-02 03:31N 50°03' W 002°28'814.2
2017-Nov-02 02:59N 50°04' W 002°17'714.9
2017-Nov-02 02:30N 50°06' W 002°06'815.7
2017-Nov-02 02:00N 50°09' W 001°55'816.6
2017-Nov-02 01:30N 50°11' W 001°42'917.1
2017-Nov-02 00:59N 50°14' W 001°29'817.5
2017-Nov-02 00:31N 50°16' W 001°16'917.6
2017-Nov-01 23:59N 50°19' W 001°02'817.1
2017-Nov-01 23:30N 50°21' W 000°50'916.5
2017-Nov-01 22:57N 50°24' W 000°36'716.1
2017-Nov-01 22:31N 50°26' W 000°26'815.4
2017-Nov-01 22:01N 50°28' W 000°14'714.8
2017-Nov-01 21:30N 50°30' W 000°03'714.3
2017-Nov-01 21:00N 50°32' E 000°08'713.8
2017-Nov-01 20:31N 50°33' E 000°18'713.3
2017-Nov-01 20:00N 50°35' E 000°29'613.0
2017-Nov-01 19:30N 50°37' E 000°38'713.1
2017-Nov-01 19:00N 50°41' E 000°47'713.5
2017-Nov-01 18:30N 50°45' E 000°56'74 4.5
2017-Nov-01 02:00N 51°57' E 001°19'0 0.0
2017-Nov-01 01:30N 51°57' E 001°19'0 0.0
2017-Nov-01 01:00N 51°57' E 001°19'0 0.0
2017-Nov-01 00:30N 51°57' E 001°19'0 0.0
2017-Nov-01 00:00N 51°57' E 001°19'0 0.1
2017-Oct-31 23:30N 51°57' E 001°19'0 0.0
2017-Oct-31 23:00N 51°57' E 001°19'0 0.0
2017-Oct-31 22:30N 51°57' E 001°19'0 0.0
2017-Oct-31 22:00N 51°57' E 001°19'0 0.0
2017-Oct-31 21:30N 51°57' E 001°19'0 0.0
2017-Oct-31 21:00N 51°57' E 001°19'0 0.0
2017-Oct-31 20:30N 51°57' E 001°19'0 0.0
2017-Oct-31 20:00N 51°57' E 001°19'0 0.0
2017-Oct-31 19:30N 51°57' E 001°19'0 0.0
2017-Oct-31 19:00N 51°57' E 001°19'0 0.0
2017-Oct-31 18:30N 51°57' E 001°19'0 0.0
2017-Oct-31 18:00N 51°57' E 001°19'0 0.0
2017-Oct-31 17:30N 51°57' E 001°19'0 0.0
2017-Oct-31 17:00N 51°57' E 001°19'0 0.0
2017-Oct-31 16:30N 51°57' E 001°19'0 0.1
2017-Oct-31 16:00N 51°57' E 001°19'0 0.0
2017-Oct-31 15:30N 51°57' E 001°19'0 0.0
2017-Oct-31 15:00N 51°57' E 001°19'0 0.0
2017-Oct-31 14:30N 51°57' E 001°19'0 0.0
2017-Oct-31 14:00N 51°57' E 001°19'0 0.0
2017-Oct-31 13:30N 51°57' E 001°19'0 0.0
2017-Oct-31 13:00N 51°57' E 001°19'0 0.0
2017-Oct-31 12:30N 51°57' E 001°19'0 0.0
2017-Oct-31 12:00N 51°57' E 001°19'0 0.0
2017-Oct-31 11:30N 51°57' E 001°19'0 0.0
2017-Oct-31 11:00N 51°57' E 001°19'0 0.0
2017-Oct-31 10:30N 51°57' E 001°19'0 0.0
2017-Oct-31 10:00N 51°57' E 001°19'0 0.0
2017-Oct-31 09:30N 51°57' E 001°19'0 0.0
2017-Oct-31 09:00N 51°57' E 001°19'0 0.0
2017-Oct-31 08:30N 51°57' E 001°19'0 0.0
2017-Oct-31 08:00N 51°57' E 001°19'0 0.0
2017-Oct-31 07:30N 51°57' E 001°19'0 0.0
2017-Oct-31 07:00N 51°57' E 001°19'0 0.0
2017-Oct-31 06:30N 51°57' E 001°19'0 0.0
2017-Oct-31 06:00N 51°57' E 001°19'0 0.0
2017-Oct-31 05:30N 51°57' E 001°19'0 0.0
2017-Oct-31 05:00N 51°57' E 001°19'0 0.0
2017-Oct-31 04:30N 51°57' E 001°19'0 0.0
2017-Oct-31 04:00N 51°57' E 001°19'0 0.0
2017-Oct-31 03:30N 51°57' E 001°19'0 0.0
2017-Oct-31 03:00N 51°57' E 001°19'0 0.0
2017-Oct-31 02:30N 51°57' E 001°19'0 0.0
2017-Oct-31 02:00N 51°57' E 001°19'0 0.0
2017-Oct-31 01:30N 51°57' E 001°19'0 0.0
2017-Oct-31 01:00N 51°57' E 001°19'0 0.0
2017-Oct-31 00:30N 51°57' E 001°19'0 0.0
2017-Oct-31 00:00N 51°57' E 001°19'0 0.0
2017-Oct-30 23:30N 51°57' E 001°19'0 0.0
2017-Oct-30 23:00N 51°57' E 001°19'0 0.0
2017-Oct-30 22:30N 51°57' E 001°19'0 0.0
2017-Oct-30 22:00N 51°57' E 001°19'0 0.0
2017-Oct-30 21:30N 51°57' E 001°19'0 0.0
2017-Oct-30 21:00N 51°57' E 001°19'0 0.0
2017-Oct-30 20:30N 51°57' E 001°19'0 0.0
2017-Oct-30 20:00N 51°57' E 001°19'0 0.0
2017-Oct-30 19:30N 51°57' E 001°19'0 0.0
2017-Oct-30 19:00N 51°57' E 001°19'0 0.0
2017-Oct-30 18:30N 51°57' E 001°19'0 0.0
2017-Oct-30 18:00N 51°57' E 001°19'0 0.0
2017-Oct-30 17:30N 51°57' E 001°19'0 0.0
2017-Oct-30 17:00N 51°57' E 001°19'0 0.0
2017-Oct-30 16:30N 51°57' E 001°19'0 0.0
2017-Oct-30 16:00N 51°57' E 001°19'0 0.0
2017-Oct-30 15:30N 51°57' E 001°19'0 0.0
2017-Oct-30 15:00N 51°57' E 001°19'0 0.0
2017-Oct-30 14:00N 51°57' E 001°19'0 0.0
2017-Oct-30 13:30N 51°57' E 001°19'0 0.0
2017-Oct-30 13:00N 51°57' E 001°19'0 0.0
2017-Oct-30 12:30N 51°57' E 001°19'0 0.0
2017-Oct-30 12:00N 51°57' E 001°19'0 0.0
2017-Oct-30 11:30N 51°57' E 001°19'0 0.0
2017-Oct-30 11:00N 51°57' E 001°19'0 0.0
2017-Oct-30 10:30N 51°57' E 001°19'0 0.0
2017-Oct-30 10:00N 51°57' E 001°19'0 0.0
2017-Oct-30 09:30N 51°57' E 001°19'0 0.0
2017-Oct-30 09:00N 51°57' E 001°19'0 0.0
2017-Oct-30 08:30N 51°57' E 001°19'0 0.0
2017-Oct-30 08:00N 51°57' E 001°19'0 0.0
2017-Oct-30 07:30N 51°57' E 001°19'0 0.0
2017-Oct-30 07:00N 51°57' E 001°19'0 0.0
2017-Oct-30 06:30N 51°57' E 001°19'0 0.0
2017-Oct-30 06:00N 51°57' E 001°19'0 0.0
2017-Oct-30 05:30N 51°57' E 001°19'0 0.0
2017-Oct-30 05:00N 51°57' E 001°19'0 0.0
2017-Oct-30 04:30N 51°57' E 001°19'0 0.0
2017-Oct-30 04:00N 51°57' E 001°19'0 0.0
2017-Oct-30 03:30N 51°57' E 001°19'0 0.0
2017-Oct-30 03:00N 51°57' E 001°19'0 0.0
2017-Oct-30 02:30N 51°57' E 001°19'0 0.0
2017-Oct-30 02:00N 51°57' E 001°19'0 0.0
2017-Oct-30 01:30N 51°57' E 001°19'0 0.0
2017-Oct-30 01:00N 51°57' E 001°19'0 0.0
2017-Oct-30 00:30N 51°57' E 001°19'0 0.0
2017-Oct-30 00:00N 51°57' E 001°19'0 0.0
2017-Oct-29 23:30N 51°57' E 001°19'0 0.0
2017-Oct-29 23:00N 51°57' E 001°19'0 0.0
2017-Oct-29 22:30N 51°57' E 001°19'0 0.0
2017-Oct-29 22:00N 51°57' E 001°19'0 0.0
2017-Oct-29 21:30N 51°57' E 001°19'0 0.0
2017-Oct-29 21:00N 51°57' E 001°19'0 0.0
2017-Oct-29 20:30N 51°57' E 001°19'0 0.0
2017-Oct-29 20:00N 51°57' E 001°19'0 0.0
2017-Oct-29 19:30N 51°57' E 001°19'0 0.0
2017-Oct-29 19:00N 51°57' E 001°19'0 0.0
2017-Oct-29 18:30N 51°57' E 001°19'0 0.0
2017-Oct-29 18:00N 51°57' E 001°19'0 0.0
2017-Oct-29 17:30N 51°57' E 001°19'0 0.0
2017-Oct-29 17:00N 51°57' E 001°19'0 0.0
2017-Oct-29 16:30N 51°57' E 001°19'0 0.0
2017-Oct-29 16:00N 51°57' E 001°19'0 0.0
2017-Oct-29 15:30N 51°57' E 001°19'0 0.0
2017-Oct-29 15:00N 51°57' E 001°19'0 0.0
2017-Oct-29 14:30N 51°57' E 001°19'0 0.0
2017-Oct-29 14:00N 51°57' E 001°19'0 0.0
2017-Oct-29 13:30N 51°57' E 001°19'0 0.0
2017-Oct-29 13:00N 51°57' E 001°19'0 0.0
2017-Oct-29 12:30N 51°57' E 001°19'0 0.0
2017-Oct-29 12:00N 51°57' E 001°19'0 0.0
2017-Oct-29 11:30N 51°57' E 001°19'0 0.0
2017-Oct-29 11:00N 51°57' E 001°19'0 0.0
2017-Oct-29 10:30N 51°57' E 001°19'0 0.0
2017-Oct-29 10:00N 51°57' E 001°19'0 0.0
2017-Oct-29 09:30N 51°57' E 001°19'0 0.0
2017-Oct-29 09:00N 51°57' E 001°19'0 0.1
2017-Oct-29 08:30N 51°57' E 001°19'1 2.7
2017-Oct-29 08:00N 51°56' E 001°19'714.6
2017-Oct-29 07:31N 51°56' E 001°31'713.7
2017-Oct-29 07:00N 51°51' E 001°37'2 5.0
2017-Oct-29 06:31N 51°53' E 001°39'0 0.8
2017-Oct-29 06:00N 51°53' E 001°40'0 0.1
2017-Oct-29 05:30N 51°53' E 001°40'0 0.2
2017-Oct-29 05:00N 51°53' E 001°40'0 0.1
2017-Oct-29 04:30N 51°53' E 001°40'0 0.0
2017-Oct-29 04:00N 51°53' E 001°40'  
Track history (hours):
 
Tides and Currents Weather Stations Pressure Air Temp Water Temp Dewpoint Dewpoint Depression Visibility Wind Speed Wind Dir Waves Ship Positions

Cape Tainaro

Last reported at 2017-Nov-08 02:00 UTC. Time now 2017-Nov-24 18:43 UTC.
Position N 36°25' E 014°44'.
Warning: this ship's position is 16 days out of date.

Length 330 m; draft 10.2 m.

Type: Cargo ship. MMSI: 249982000.

Date/timePositionNaut miles runAvg speedWind from/ knotsBaromVisibWave heightAir tempDewpointWater temp
2017-Nov-08 02:00N 36°25' E 014°44'714.3
2017-Nov-08 01:30N 36°27' E 014°35'714.6
2017-Nov-08 01:00N 36°29' E 014°27'714.6
2017-Nov-08 00:30N 36°31' E 014°18'714.4
2017-Nov-08 00:00N 36°33' E 014°09'714.3
2017-Nov-07 23:30N 36°35' E 014°01'714.4
2017-Nov-07 23:00N 36°37' E 013°52'714.3
2017-Nov-07 22:30N 36°39' E 013°44'714.5
2017-Nov-07 22:00N 36°42' E 013°35'714.5
2017-Nov-07 21:30N 36°44' E 013°26'  
2017-Nov-05 07:04N 35°59' W 005°15'116.8
2017-Nov-05 07:01N 35°59' W 005°17'918.2
2017-Nov-05 06:31N 35°58' W 005°28'24213.3
2017-Nov-04 12:21N 37°56' W 009°52'515.2
2017-Nov-04 12:00N 38°01' W 009°54'815.2
2017-Nov-04 11:30N 38°09' W 009°57'815.0
2017-Nov-04 11:00N 38°16' W 009°59'715.2
2017-Nov-04 10:30N 38°23' W 010°01'815.6
2017-Nov-04 10:00N 38°31' W 010°03'815.3
2017-Nov-04 09:30N 38°38' W 010°05'714.9
2017-Nov-04 09:00N 38°46' W 010°06'815.1
2017-Nov-04 08:31N 38°53' W 010°06'815.2
2017-Nov-04 08:00N 39°01' W 010°06'815.6
2017-Nov-04 07:30N 39°09' W 010°07'815.6
2017-Nov-04 07:00N 39°16' W 010°07'815.4
2017-Nov-04 06:30N 39°24' W 010°06'815.4
2017-Nov-04 06:00N 39°32' W 010°06'44014.5
2017-Nov-02 23:44N 46°38' W 007°38'3415.1
2017-Nov-02 21:30N 47°08' W 007°16'815.2
2017-Nov-02 20:58N 47°15' W 007°10'714.7
2017-Nov-02 20:30N 47°21' W 007°05'715.0
2017-Nov-02 20:00N 47°28' W 006°59'1015.5
2017-Nov-02 19:21N 47°36' W 006°52'616.3
2017-Nov-02 18:58N 47°42' W 006°47'716.2
2017-Nov-02 18:30N 47°48' W 006°41'816.2
2017-Nov-02 17:59N 47°55' W 006°35'815.8
2017-Nov-02 17:30N 48°02' W 006°30'816.2
2017-Nov-02 17:01N 48°09' W 006°24'714.8
2017-Nov-02 16:30N 48°16' W 006°19'714.9
2017-Nov-02 16:01N 48°22' W 006°13'714.5
2017-Nov-02 15:30N 48°29' W 006°08'714.0
2017-Nov-02 14:59N 48°35' W 006°03'613.7
2017-Nov-02 14:30N 48°41' W 005°58'713.6
2017-Nov-02 13:57N 48°47' W 005°53'713.5
2017-Nov-02 13:28N 48°53' W 005°46'613.9
2017-Nov-02 13:00N 48°56' W 005°38'1014.0
2017-Nov-02 12:16N 49°02' W 005°25'814.5
2017-Nov-02 11:42N 49°06' W 005°14'314.8
2017-Nov-02 11:30N 49°07' W 005°10'815.3
2017-Nov-02 10:57N 49°12' W 004°60'5116.3
2017-Nov-02 07:48N 49°38' W 003°52'515.6
2017-Nov-02 07:28N 49°41' W 003°45'715.2
2017-Nov-02 07:00N 49°44' W 003°36'714.6
2017-Nov-02 06:31N 49°48' W 003°26'714.1
2017-Nov-02 06:00N 49°52' W 003°16'713.7
2017-Nov-02 05:30N 49°55' W 003°07'713.3
2017-Nov-02 05:00N 49°59' W 002°59'713.1
2017-Nov-02 04:30N 50°00' W 002°49'713.3
2017-Nov-02 04:01N 50°02' W 002°39'713.6
2017-Nov-02 03:31N 50°03' W 002°28'814.2
2017-Nov-02 02:59N 50°04' W 002°17'714.9
2017-Nov-02 02:30N 50°06' W 002°06'815.7
2017-Nov-02 02:00N 50°09' W 001°55'816.6
2017-Nov-02 01:30N 50°11' W 001°42'917.1
2017-Nov-02 00:59N 50°14' W 001°29'817.5
2017-Nov-02 00:31N 50°16' W 001°16'917.6
2017-Nov-01 23:59N 50°19' W 001°02'817.1
2017-Nov-01 23:30N 50°21' W 000°50'916.5
2017-Nov-01 22:57N 50°24' W 000°36'716.1
2017-Nov-01 22:31N 50°26' W 000°26'815.4
2017-Nov-01 22:01N 50°28' W 000°14'714.8
2017-Nov-01 21:30N 50°30' W 000°03'714.3
2017-Nov-01 21:00N 50°32' E 000°08'713.8
2017-Nov-01 20:31N 50°33' E 000°18'713.3
2017-Nov-01 20:00N 50°35' E 000°29'613.0
2017-Nov-01 19:30N 50°37' E 000°38'713.1
2017-Nov-01 19:00N 50°41' E 000°47'713.5
2017-Nov-01 18:30N 50°45' E 000°56'74 4.5
2017-Nov-01 02:00N 51°57' E 001°19'0 0.0
2017-Nov-01 01:30N 51°57' E 001°19'0 0.0
2017-Nov-01 01:00N 51°57' E 001°19'0 0.0
2017-Nov-01 00:30N 51°57' E 001°19'0 0.0
2017-Nov-01 00:00N 51°57' E 001°19'0 0.1
2017-Oct-31 23:30N 51°57' E 001°19'0 0.0
2017-Oct-31 23:00N 51°57' E 001°19'0 0.0
2017-Oct-31 22:30N 51°57' E 001°19'0 0.0
2017-Oct-31 22:00N 51°57' E 001°19'0 0.0
2017-Oct-31 21:30N 51°57' E 001°19'0 0.0
2017-Oct-31 21:00N 51°57' E 001°19'0 0.0
2017-Oct-31 20:30N 51°57' E 001°19'0 0.0
2017-Oct-31 20:00N 51°57' E 001°19'0 0.0
2017-Oct-31 19:30N 51°57' E 001°19'0 0.0
2017-Oct-31 19:00N 51°57' E 001°19'0 0.0
2017-Oct-31 18:30N 51°57' E 001°19'0 0.0
2017-Oct-31 18:00N 51°57' E 001°19'0 0.0
2017-Oct-31 17:30N 51°57' E 001°19'0 0.0
2017-Oct-31 17:00N 51°57' E 001°19'0 0.0
2017-Oct-31 16:30N 51°57' E 001°19'0 0.1
2017-Oct-31 16:00N 51°57' E 001°19'0 0.0
2017-Oct-31 15:30N 51°57' E 001°19'0 0.0
2017-Oct-31 15:00N 51°57' E 001°19'0 0.0
2017-Oct-31 14:30N 51°57' E 001°19'0 0.0
2017-Oct-31 14:00N 51°57' E 001°19'0 0.0
2017-Oct-31 13:30N 51°57' E 001°19'0 0.0
2017-Oct-31 13:00N 51°57' E 001°19'0 0.0
2017-Oct-31 12:30N 51°57' E 001°19'0 0.0
2017-Oct-31 12:00N 51°57' E 001°19'0 0.0
2017-Oct-31 11:30N 51°57' E 001°19'0 0.0
2017-Oct-31 11:00N 51°57' E 001°19'0 0.0
2017-Oct-31 10:30N 51°57' E 001°19'0 0.0
2017-Oct-31 10:00N 51°57' E 001°19'0 0.0
2017-Oct-31 09:30N 51°57' E 001°19'0 0.0
2017-Oct-31 09:00N 51°57' E 001°19'0 0.0
2017-Oct-31 08:30N 51°57' E 001°19'0 0.0
2017-Oct-31 08:00N 51°57' E 001°19'0 0.0
2017-Oct-31 07:30N 51°57' E 001°19'0 0.0
2017-Oct-31 07:00N 51°57' E 001°19'0 0.0
2017-Oct-31 06:30N 51°57' E 001°19'0 0.0
2017-Oct-31 06:00N 51°57' E 001°19'0 0.0
2017-Oct-31 05:30N 51°57' E 001°19'0 0.0
2017-Oct-31 05:00N 51°57' E 001°19'0 0.0
2017-Oct-31 04:30N 51°57' E 001°19'0 0.0
2017-Oct-31 04:00N 51°57' E 001°19'0 0.0
2017-Oct-31 03:30N 51°57' E 001°19'0 0.0
2017-Oct-31 03:00N 51°57' E 001°19'0 0.0
2017-Oct-31 02:30N 51°57' E 001°19'0 0.0
2017-Oct-31 02:00N 51°57' E 001°19'0 0.0
2017-Oct-31 01:30N 51°57' E 001°19'0 0.0
2017-Oct-31 01:00N 51°57' E 001°19'0 0.0
2017-Oct-31 00:30N 51°57' E 001°19'0 0.0
2017-Oct-31 00:00N 51°57' E 001°19'0 0.0
2017-Oct-30 23:30N 51°57' E 001°19'0 0.0
2017-Oct-30 23:00N 51°57' E 001°19'0 0.0
2017-Oct-30 22:30N 51°57' E 001°19'0 0.0
2017-Oct-30 22:00N 51°57' E 001°19'0 0.0
2017-Oct-30 21:30N 51°57' E 001°19'0 0.0
2017-Oct-30 21:00N 51°57' E 001°19'0 0.0
2017-Oct-30 20:30N 51°57' E 001°19'0 0.0
2017-Oct-30 20:00N 51°57' E 001°19'0 0.0
2017-Oct-30 19:30N 51°57' E 001°19'0 0.0
2017-Oct-30 19:00N 51°57' E 001°19'0 0.0
2017-Oct-30 18:30N 51°57' E 001°19'0 0.0
2017-Oct-30 18:00N 51°57' E 001°19'0 0.0
2017-Oct-30 17:30N 51°57' E 001°19'0 0.0
2017-Oct-30 17:00N 51°57' E 001°19'0 0.0
2017-Oct-30 16:30N 51°57' E 001°19'0 0.0
2017-Oct-30 16:00N 51°57' E 001°19'0 0.0
2017-Oct-30 15:30N 51°57' E 001°19'0 0.0
2017-Oct-30 15:00N 51°57' E 001°19'0 0.0
2017-Oct-30 14:00N 51°57' E 001°19'0 0.0
2017-Oct-30 13:30N 51°57' E 001°19'0 0.0
2017-Oct-30 13:00N 51°57' E 001°19'0 0.0
2017-Oct-30 12:30N 51°57' E 001°19'0 0.0
2017-Oct-30 12:00N 51°57' E 001°19'0 0.0
2017-Oct-30 11:30N 51°57' E 001°19'0 0.0
2017-Oct-30 11:00N 51°57' E 001°19'0 0.0
2017-Oct-30 10:30N 51°57' E 001°19'0 0.0
2017-Oct-30 10:00N 51°57' E 001°19'0 0.0
2017-Oct-30 09:30N 51°57' E 001°19'0 0.0
2017-Oct-30 09:00N 51°57' E 001°19'0 0.0
2017-Oct-30 08:30N 51°57' E 001°19'0 0.0
2017-Oct-30 08:00N 51°57' E 001°19'0 0.0
2017-Oct-30 07:30N 51°57' E 001°19'0 0.0
2017-Oct-30 07:00N 51°57' E 001°19'0 0.0
2017-Oct-30 06:30N 51°57' E 001°19'0 0.0
2017-Oct-30 06:00N 51°57' E 001°19'0 0.0
2017-Oct-30 05:30N 51°57' E 001°19'0 0.0
2017-Oct-30 05:00N 51°57' E 001°19'0 0.0
2017-Oct-30 04:30N 51°57' E 001°19'0 0.0
2017-Oct-30 04:00N 51°57' E 001°19'0 0.0
2017-Oct-30 03:30N 51°57' E 001°19'0 0.0
2017-Oct-30 03:00N 51°57' E 001°19'0 0.0
2017-Oct-30 02:30N 51°57' E 001°19'0 0.0
2017-Oct-30 02:00N 51°57' E 001°19'0 0.0
2017-Oct-30 01:30N 51°57' E 001°19'0 0.0
2017-Oct-30 01:00N 51°57' E 001°19'0 0.0
2017-Oct-30 00:30N 51°57' E 001°19'0 0.0
2017-Oct-30 00:00N 51°57' E 001°19'0 0.0
2017-Oct-29 23:30N 51°57' E 001°19'0 0.0
2017-Oct-29 23:00N 51°57' E 001°19'0 0.0
2017-Oct-29 22:30N 51°57' E 001°19'0 0.0
2017-Oct-29 22:00N 51°57' E 001°19'0 0.0
2017-Oct-29 21:30N 51°57' E 001°19'0 0.0
2017-Oct-29 21:00N 51°57' E 001°19'0 0.0
2017-Oct-29 20:30N 51°57' E 001°19'0 0.0
2017-Oct-29 20:00N 51°57' E 001°19'0 0.0
2017-Oct-29 19:30N 51°57' E 001°19'0 0.0
2017-Oct-29 19:00N 51°57' E 001°19'0 0.0
2017-Oct-29 18:30N 51°57' E 001°19'0 0.0
2017-Oct-29 18:00N 51°57' E 001°19'0 0.0
2017-Oct-29 17:30N 51°57' E 001°19'0 0.0
2017-Oct-29 17:00N 51°57' E 001°19'0 0.0
2017-Oct-29 16:30N 51°57' E 001°19'0 0.0
2017-Oct-29 16:00N 51°57' E 001°19'0 0.0
2017-Oct-29 15:30N 51°57' E 001°19'0 0.0
2017-Oct-29 15:00N 51°57' E 001°19'0 0.0
2017-Oct-29 14:30N 51°57' E 001°19'0 0.0
2017-Oct-29 14:00N 51°57' E 001°19'0 0.0
2017-Oct-29 13:30N 51°57' E 001°19'0 0.0
2017-Oct-29 13:00N 51°57' E 001°19'0 0.0
2017-Oct-29 12:30N 51°57' E 001°19'0 0.0
2017-Oct-29 12:00N 51°57' E 001°19'0 0.0
2017-Oct-29 11:30N 51°57' E 001°19'0 0.0
2017-Oct-29 11:00N 51°57' E 001°19'0 0.0
2017-Oct-29 10:30N 51°57' E 001°19'0 0.0
2017-Oct-29 10:00N 51°57' E 001°19'0 0.0
2017-Oct-29 09:30N 51°57' E 001°19'0 0.0
2017-Oct-29 09:00N 51°57' E 001°19'0 0.1
2017-Oct-29 08:30N 51°57' E 001°19'1 2.7
2017-Oct-29 08:00N 51°56' E 001°19'714.6
2017-Oct-29 07:31N 51°56' E 001°31'713.7
2017-Oct-29 07:00N 51°51' E 001°37'2 5.0
2017-Oct-29 06:31N 51°53' E 001°39'0 0.8
2017-Oct-29 06:00N 51°53' E 001°40'0 0.1
2017-Oct-29 05:30N 51°53' E 001°40'0 0.2
2017-Oct-29 05:00N 51°53' E 001°40'0 0.1
2017-Oct-29 04:30N 51°53' E 001°40'0 0.0
2017-Oct-29 04:00N 51°53' E 001°40'  

Dump ship's entire track history